Time;durP1;ratioP1;P1;durP2;ratioP2;P2;SDS_P1;SDS_P2;PMS_P1;PMS_P2;Temp;Humidity;BMP_temperature;BMP_pressure;BME280_temperature;BME280_humidity;BME280_pressure;Samples;Min_cycle;Max_cycle;Signal;HPM_P1;HPM_P2
2023/05/16 00:04:02;;;;;;;14.07;8.05;;;11.70;99.90;;;;;;12493070;28;20068;-38
2023/05/16 00:10:06;;;;;;;;;;;11.60;99.90;;;;;;12477539;28;20148;-37
2023/05/16 00:16:10;;;;;;;7.63;5.40;;;11.50;99.90;;;;;;12434682;28;19921;-37
2023/05/16 00:22:17;;;;;;;6.30;5.18;;;11.50;99.90;;;;;;12459676;28;20175;-37
2023/05/16 00:28:20;;;;;;;6.60;4.63;;;11.60;99.90;;;;;;12484826;28;20136;-38
2023/05/16 00:34:24;;;;;;;5.60;4.53;;;11.50;99.90;;;;;;12488469;28;20037;-38
2023/05/16 00:40:27;;;;;;;9.13;4.63;;;11.40;99.90;;;;;;12509113;28;20053;-37
2023/05/16 00:46:31;;;;;;;5.43;4.57;;;11.50;99.90;;;;;;12501332;28;20080;-37
2023/05/16 00:52:36;;;;;;;8.93;4.40;;;11.50;99.90;;;;;;12503233;28;20046;-38
2023/05/16 00:58:40;;;;;;;6.22;4.22;;;11.50;99.90;;;;;;12478700;28;20045;-37
2023/05/16 01:04:44;;;;;;;6.65;4.88;;;11.50;99.90;;;;;;12453149;28;20145;-38
2023/05/16 01:11:13;;;;;;;6.93;4.85;;;11.50;99.90;;;;;;12436419;28;20065;-37
2023/05/16 01:17:49;;;;;;;6.47;4.93;;;11.40;99.90;;;;;;12416766;28;20049;-37
2023/05/16 01:24:03;;;;;;;6.53;4.30;;;11.30;99.90;;;;;;12411358;28;20423;-38
2023/05/16 01:30:25;;;;;;;5.93;4.00;;;11.30;99.90;;;;;;12451666;28;20568;-37
2023/05/16 01:37:08;;;;;;;6.30;3.97;;;11.30;99.90;;;;;;12405986;28;20092;-38
2023/05/16 01:43:20;;;;;;;5.55;3.85;;;11.10;99.90;;;;;;12448370;28;20384;-38
2023/05/16 01:49:40;;;;;;;5.75;3.60;;;11.10;99.90;;;;;;12434799;28;20554;-38
2023/05/16 01:55:52;;;;;;;5.90;3.15;;;11.10;99.90;;;;;;12419567;28;20034;-38
2023/05/16 02:01:58;;;;;;;6.22;2.30;;;11.00;99.90;;;;;;12439317;28;20057;-37
2023/05/16 02:08:02;;;;;;;6.30;2.05;;;10.80;99.90;;;;;;12433787;28;20050;-39
2023/05/16 02:14:05;;;;;;;3.72;1.58;;;10.70;99.90;;;;;;12479681;28;20049;-36
2023/05/16 02:20:10;;;;;;;6.65;1.90;;;10.80;99.90;;;;;;12483700;28;20056;-38
2023/05/16 02:26:16;;;;;;;7.47;2.13;;;10.60;99.90;;;;;;12473261;28;20053;-37
2023/05/16 02:32:21;;;;;;;5.97;2.10;;;10.50;99.90;;;;;;12479656;28;20410;-37
2023/05/16 02:38:24;;;;;;;3.63;1.80;;;10.70;99.90;;;;;;12489018;28;20033;-37
2023/05/16 02:44:28;;;;;;;12.77;2.28;;;10.60;99.90;;;;;;12487238;28;20136;-37
2023/05/16 02:50:32;;;;;;;9.23;1.80;;;10.50;99.90;;;;;;12477557;28;20053;-37
2023/05/16 02:56:36;;;;;;;6.20;1.83;;;10.50;99.90;;;;;;12488919;28;20462;-37
2023/05/16 03:02:40;;;;;;;10.10;1.83;;;10.40;99.90;;;;;;12506481;28;20084;-37
2023/05/16 03:08:43;;;;;;;5.53;2.30;;;10.30;99.90;;;;;;12498268;28;20152;-37
2023/05/16 03:14:48;;;;;;;12.45;2.17;;;10.40;99.90;;;;;;12456625;28;20168;-35
2023/05/16 03:20:58;;;;;;;7.60;1.90;;;10.20;99.90;;;;;;12480188;28;20382;-35
2023/05/16 03:27:07;;;;;;;11.40;2.30;;;10.30;99.90;;;;;;12466938;28;20061;-34
2023/05/16 03:33:17;;;;;;;10.05;1.98;;;10.30;99.90;;;;;;12487074;28;21133;-35
2023/05/16 03:39:27;;;;;;;12.77;2.10;;;10.30;99.90;;;;;;12466205;28;20084;-34
2023/05/16 03:45:36;;;;;;;16.67;2.38;;;10.20;99.90;;;;;;12483350;28;20045;-35
2023/05/16 03:51:45;;;;;;;11.02;2.03;;;10.20;99.90;;;;;;12476505;28;20527;-35
2023/05/16 03:57:56;;;;;;;15.68;2.60;;;10.10;99.90;;;;;;12474974;28;20046;-35
2023/05/16 04:04:05;;;;;;;11.73;2.95;;;10.10;99.90;;;;;;12480711;28;20049;-35
2023/05/16 04:10:14;;;;;;;10.38;1.65;;;10.20;99.90;;;;;;12470807;28;20076;-35
2023/05/16 04:16:21;;;;;;;9.80;2.13;;;9.80;99.90;;;;;;12479932;28;20045;-35
2023/05/16 04:22:26;;;;;;;9.63;2.33;;;9.70;99.90;;;;;;12467720;28;20042;-35
2023/05/16 04:28:30;;;;;;;8.05;1.80;;;9.50;99.90;;;;;;12478052;28;20050;-35
2023/05/16 04:34:36;;;;;;;12.35;2.28;;;9.50;99.90;;;;;;12490289;28;20045;-36
2023/05/16 04:40:45;;;;;;;12.52;2.03;;;9.40;99.90;;;;;;12469232;28;20056;-35
2023/05/16 04:46:54;;;;;;;9.77;1.63;;;9.70;99.90;;;;;;12462138;28;20437;-35
2023/05/16 04:53:03;;;;;;;17.35;2.10;;;9.70;99.90;;;;;;12466571;28;20494;-35
2023/05/16 04:59:12;;;;;;;14.00;1.90;;;9.80;99.90;;;;;;12478543;28;20057;-35
2023/05/16 05:05:18;;;;;;;13.85;1.70;;;9.70;99.90;;;;;;12466308;28;20140;-36
2023/05/16 05:11:22;;;;;;;16.63;2.65;;;9.70;99.90;;;;;;12487006;28;20045;-36
2023/05/16 05:17:25;;;;;;;7.63;1.60;;;10.00;99.90;;;;;;12485293;28;20049;-35
2023/05/16 05:23:30;;;;;;;15.60;1.75;;;9.80;99.90;;;;;;12479309;28;20056;-35
2023/05/16 05:29:33;;;;;;;9.68;1.98;;;10.00;99.90;;;;;;12480468;28;20053;-36
2023/05/16 05:35:36;;;;;;;12.95;1.80;;;9.90;99.90;;;;;;12484718;28;20077;-36
2023/05/16 05:41:41;;;;;;;12.93;1.85;;;9.80;99.90;;;;;;12478640;28;20050;-35
2023/05/16 05:47:44;;;;;;;14.95;2.42;;;9.60;99.90;;;;;;12467659;28;20065;-35
2023/05/16 05:53:48;;;;;;;9.77;1.52;;;9.80;99.90;;;;;;12468238;28;20068;-35
2023/05/16 05:59:52;;;;;;;12.55;2.20;;;9.40;99.90;;;;;;12478658;28;20559;-35
2023/05/16 06:05:56;;;;;;;12.07;2.10;;;9.20;99.90;;;;;;12477854;28;20174;-35
2023/05/16 06:12:00;;;;;;;16.20;1.73;;;9.70;99.90;;;;;;12475284;28;20057;-35
2023/05/16 06:18:03;;;;;;;10.17;2.10;;;9.80;99.90;;;;;;12462842;28;20037;-35
2023/05/16 06:24:06;;;;;;;10.53;1.70;;;10.20;99.90;;;;;;12487526;28;20045;-35
2023/05/16 06:30:10;;;;;;;14.63;2.45;;;10.20;99.90;;;;;;12467498;28;20064;-35
2023/05/16 06:36:13;;;;;;;12.57;2.20;;;10.30;99.90;;;;;;12477577;28;20046;-35
2023/05/16 06:42:16;;;;;;;11.93;1.80;;;10.50;99.90;;;;;;12494307;28;20056;-35
2023/05/16 06:48:20;;;;;;;8.88;1.65;;;10.40;99.90;;;;;;12471824;28;20140;-35
2023/05/16 06:54:23;;;;;;;11.20;1.70;;;11.00;99.90;;;;;;12482569;28;20091;-35
2023/05/16 07:00:26;;;;;;;13.47;2.20;;;10.90;99.90;;;;;;12480168;28;20045;-36
2023/05/16 07:06:30;;;;;;;13.50;1.60;;;10.60;99.90;;;;;;12490712;28;20088;-35
2023/05/16 07:12:34;;;;;;;7.77;1.70;;;11.20;99.90;;;;;;12459233;28;20514;-36
2023/05/16 07:18:38;;;;;;;10.77;1.55;;;11.30;99.90;;;;;;12510897;28;20060;-35
2023/05/16 07:24:41;;;;;;;11.95;1.55;;;11.30;99.90;;;;;;12494642;28;20072;-35
2023/05/16 07:30:45;;;;;;;10.60;1.40;;;11.60;99.90;;;;;;12508143;28;20052;-35
2023/05/16 07:36:49;;;;;;;8.00;1.25;;;11.40;99.90;;;;;;12501311;28;20394;-35
2023/05/16 07:42:52;;;;;;;7.82;1.30;;;11.80;99.90;;;;;;12507271;28;20111;-36
2023/05/16 07:48:56;;;;;;;5.53;1.20;;;11.70;99.90;;;;;;12472915;28;20045;-36
2023/05/16 07:54:59;;;;;;;7.43;1.40;;;12.10;99.90;;;;;;12486934;28;20049;-36
2023/05/16 08:01:01;;;;;;;8.65;1.48;;;12.20;99.90;;;;;;12513026;28;20437;-36
2023/05/16 08:07:05;;;;;;;8.50;1.60;;;11.60;99.90;;;;;;12512658;28;20659;-37
2023/05/16 08:13:08;;;;;;;8.43;1.40;;;11.30;99.90;;;;;;12494704;28;20048;-35
2023/05/16 08:19:12;;;;;;;9.77;2.33;;;10.60;99.90;;;;;;12493459;28;20096;-35
2023/05/16 08:25:15;;;;;;;8.20;1.40;;;10.50;99.90;;;;;;12486602;28;20186;-35
2023/05/16 08:31:21;;;;;;;7.85;1.42;;;10.50;99.90;;;;;;12497456;28;20100;-36
2023/05/16 08:37:27;;;;;;;5.65;0.90;;;11.10;99.90;;;;;;12487663;28;20049;-36
2023/05/16 08:43:40;;;;;;;;;;;11.30;99.90;;;;;;12476798;28;20135;-36
2023/05/16 08:49:46;;;;;;;9.15;1.30;;;11.10;99.90;;;;;;12496888;28;19937;-36
2023/05/16 08:55:51;;;;;;;8.45;1.13;;;11.60;99.90;;;;;;12495949;28;20470;-36
2023/05/16 09:01:57;;;;;;;5.57;0.93;;;11.50;99.90;;;;;;12459016;28;20053;-35
2023/05/16 09:08:00;;;;;;;7.90;1.08;;;12.00;99.90;;;;;;12488780;28;20463;-36
2023/05/16 09:14:04;;;;;;;8.85;1.50;;;12.50;99.90;;;;;;12459125;28;20042;-36
2023/05/16 09:20:13;;;;;;;10.00;1.20;;;13.00;99.90;;;;;;12505398;28;20608;-36
2023/05/16 09:26:18;;;;;;;5.45;1.30;;;13.20;99.90;;;;;;12491779;28;20045;-36
2023/05/16 09:32:21;;;;;;;7.60;0.95;;;13.10;99.90;;;;;;12495621;28;20136;-36
2023/05/16 09:38:29;;;;;;;9.15;1.23;;;13.70;99.90;;;;;;12482204;28;20045;-36
2023/05/16 09:44:31;;;;;;;7.82;1.25;;;13.20;99.90;;;;;;12482473;28;20068;-36
2023/05/16 09:50:36;;;;;;;6.00;1.25;;;12.90;99.90;;;;;;12521867;28;20504;-37
2023/05/16 09:56:52;;;;;;;5.10;0.80;;;13.50;99.90;;;;;;12480486;28;20160;-35
2023/05/16 10:02:58;;;;;;;5.72;0.93;;;13.50;99.90;;;;;;12485955;28;20509;-36
2023/05/16 10:09:06;;;;;;;4.20;0.80;;;13.40;99.90;;;;;;12469179;28;20177;-36
2023/05/16 10:15:10;;;;;;;;;;;13.60;99.90;;;;;;12480467;28;20394;-35
2023/05/16 10:21:16;;;;;;;3.88;0.80;;;13.60;99.90;;;;;;12497900;28;19921;-36
2023/05/16 10:27:21;;;;;;;6.47;0.98;;;14.00;99.90;;;;;;12464598;28;20453;-35
2023/05/16 10:33:30;;;;;;;7.60;1.05;;;13.60;99.90;;;;;;12462236;28;20081;-35
2023/05/16 10:39:39;;;;;;;6.50;0.90;;;13.20;99.90;;;;;;12491623;28;20041;-36
2023/05/16 10:45:59;;;;;;;5.78;1.10;;;14.30;99.90;;;;;;12479549;28;20062;-35
2023/05/16 10:52:12;;;;;;;5.40;0.90;;;14.30;99.90;;;;;;12488707;28;20053;-35
2023/05/16 10:58:39;;;;;;;11.05;1.25;;;13.70;99.90;;;;;;12475935;28;20049;-35
2023/05/16 11:04:58;;;;;;;6.75;1.40;;;13.20;99.90;;;;;;12460783;28;20184;-35
2023/05/16 11:11:42;;;;;;;6.95;1.05;;;12.80;99.90;;;;;;12442745;28;20045;-36
2023/05/16 11:18:12;;;;;;;6.03;0.95;;;12.90;99.90;;;;;;12416439;28;20046;-35
2023/05/16 11:24:31;;;;;;;3.90;0.80;;;13.70;99.90;;;;;;12432380;28;20092;-35
2023/05/16 11:30:51;;;;;;;2.63;0.70;;;12.70;99.90;;;;;;12453943;28;20487;-36
2023/05/16 11:36:55;;;;;;;3.30;0.80;;;13.00;99.90;;;;;;12450745;28;20122;-36
2023/05/16 11:43:02;;;;;;;4.07;0.97;;;13.40;99.90;;;;;;12431663;28;20053;-36
2023/05/16 11:49:12;;;;;;;4.63;1.13;;;14.10;99.90;;;;;;12453638;28;20091;-36
2023/05/16 11:55:17;;;;;;;3.97;1.02;;;14.10;99.90;;;;;;12458444;28;20065;-36
2023/05/16 12:01:42;;;;;;;5.68;0.90;;;14.80;99.90;;;;;;12445260;28;20389;-36
2023/05/16 12:07:46;;;;;;;4.55;1.60;;;13.40;99.90;;;;;;12451931;28;20050;-36
2023/05/16 12:13:59;;;;;;;4.00;0.82;;;13.10;99.90;;;;;;12495069;28;20053;-36
2023/05/16 12:20:05;;;;;;;5.50;0.90;;;13.10;99.90;;;;;;12468773;28;20691;-36
2023/05/16 12:26:09;;;;;;;2.28;0.75;;;14.40;99.90;;;;;;12481574;28;20041;-37
2023/05/16 12:32:16;;;;;;;5.27;0.93;;;14.80;99.90;;;;;;12491953;28;20544;-37
2023/05/16 12:38:20;;;;;;;3.80;0.70;;;14.60;99.90;;;;;;12468299;28;20049;-36
2023/05/16 12:44:29;;;;;;;8.80;2.05;;;15.20;99.90;;;;;;12469256;28;20183;-36
2023/05/16 12:50:40;;;;;;;2.42;0.68;;;14.40;99.90;;;;;;12479232;28;20508;-36
2023/05/16 12:56:44;;;;;;;3.55;0.95;;;14.00;99.90;;;;;;12492867;28;20052;-36
2023/05/16 13:02:52;;;;;;;4.65;0.82;;;13.70;99.90;;;;;;12482185;28;20048;-35
2023/05/16 13:08:56;;;;;;;6.68;1.10;;;13.50;99.90;;;;;;12442377;28;20050;-36
2023/05/16 13:15:00;;;;;;;4.57;0.98;;;12.90;99.90;;;;;;12404686;28;20050;-36
2023/05/16 13:21:04;;;;;;;8.57;1.10;;;13.40;99.90;;;;;;12424893;28;20050;-36
2023/05/16 13:27:08;;;;;;;4.93;1.00;;;14.40;99.90;;;;;;12447457;28;20060;-36
2023/05/16 13:33:12;;;;;;;3.15;0.65;;;15.00;99.90;;;;;;12446343;28;20494;-36
2023/05/16 13:39:15;;;;;;;1.67;0.55;;;14.80;99.90;;;;;;12453743;28;20046;-36
2023/05/16 13:45:19;;;;;;;;;;;15.00;99.90;;;;;;12439122;28;20056;-36
2023/05/16 13:51:23;;;;;;;;;;;15.10;99.90;;;;;;12454781;28;19938;-36
2023/05/16 13:57:26;;;;;;;2.38;0.60;;;15.00;99.90;;;;;;12463664;28;20277;-36
2023/05/16 14:03:31;;;;;;;3.40;0.80;;;14.90;99.90;;;;;;12429666;28;20057;-35
2023/05/16 14:09:37;;;;;;;3.60;0.90;;;14.70;99.90;;;;;;12480312;28;20084;-35
2023/05/16 14:15:40;;;;;;;6.18;0.77;;;15.00;99.90;;;;;;12477870;28;20085;-37
2023/05/16 14:21:44;;;;;;;3.58;0.90;;;14.40;99.90;;;;;;12496310;28;20131;-38
2023/05/16 14:27:46;;;;;;;7.07;0.83;;;13.80;99.90;;;;;;12496638;28;20057;-37
2023/05/16 14:33:56;;;;;;;3.40;0.80;;;13.60;99.90;;;;;;12496139;28;20065;-37
2023/05/16 14:40:01;;;;;;;5.38;0.88;;;13.20;99.90;;;;;;12494760;28;20354;-37
2023/05/16 14:46:06;;;;;;;3.60;0.60;;;13.10;99.90;;;;;;12499484;28;20057;-37
2023/05/16 14:52:11;;;;;;;7.07;1.00;;;12.70;99.90;;;;;;12484742;28;20486;-37
2023/05/16 14:58:16;;;;;;;4.60;0.90;;;12.80;99.90;;;;;;12484755;28;20425;-38
2023/05/16 15:04:23;;;;;;;6.22;0.70;;;13.20;99.90;;;;;;12483155;28;20037;-38
2023/05/16 15:10:31;;;;;;;4.55;0.68;;;13.90;99.90;;;;;;12491293;28;20132;-38
2023/05/16 15:16:36;;;;;;;7.57;1.05;;;14.20;99.90;;;;;;12454901;28;20056;-38
2023/05/16 15:22:41;;;;;;;4.10;1.00;;;14.50;99.90;;;;;;12476101;28;20099;-36
2023/05/16 15:28:47;;;;;;;5.68;0.88;;;14.10;99.90;;;;;;12463282;28;20053;-38
2023/05/16 15:34:55;;;;;;;5.80;0.90;;;14.60;99.90;;;;;;12466876;28;20144;-38
2023/05/16 15:41:04;;;;;;;4.55;0.85;;;14.20;99.90;;;;;;12484042;28;20042;-37
2023/05/16 15:47:33;;;;;;;5.05;1.10;;;13.70;99.90;;;;;;12469738;28;20065;-37
2023/05/16 15:53:43;;;;;;;3.65;1.10;;;13.10;99.90;;;;;;12475224;28;20118;-37
2023/05/16 15:59:53;;;;;;;4.43;0.88;;;12.70;99.90;;;;;;12479682;28;20125;-37
2023/05/16 16:06:04;;;;;;;4.45;1.00;;;13.10;99.90;;;;;;12453784;28;20053;-37
2023/05/16 16:12:12;;;;;;;6.18;0.90;;;13.90;99.90;;;;;;12441228;28;20054;-38
2023/05/16 16:18:17;;;;;;;7.82;1.52;;;13.40;99.90;;;;;;12416988;28;20655;-38
2023/05/16 16:24:20;;;;;;;5.30;1.00;;;13.10;99.90;;;;;;12439982;28;20166;-38
2023/05/16 16:30:24;;;;;;;5.75;1.00;;;12.80;99.90;;;;;;12444683;28;20054;-38
2023/05/16 16:36:30;;;;;;;7.65;1.30;;;13.10;99.90;;;;;;12445845;28;20054;-38
2023/05/16 16:42:32;;;;;;;4.53;0.90;;;13.20;99.90;;;;;;12431578;28;20089;-38
2023/05/16 16:48:36;;;;;;;5.43;1.10;;;13.10;99.90;;;;;;12442086;28;20061;-37
2023/05/16 16:54:42;;;;;;;7.25;1.17;;;13.00;99.90;;;;;;12443476;28;20080;-38
2023/05/16 17:00:45;;;;;;;7.50;1.60;;;13.20;99.90;;;;;;12445072;28;20137;-39
2023/05/16 17:06:49;;;;;;;4.63;1.98;;;13.10;99.90;;;;;;12425610;28;20136;-38
2023/05/16 17:12:53;;;;;;;5.73;1.80;;;13.10;99.90;;;;;;12426450;28;20073;-39
2023/05/16 17:18:57;;;;;;;5.05;1.63;;;13.00;99.90;;;;;;12422195;28;20048;-38
2023/05/16 17:25:00;;;;;;;9.10;2.05;;;12.80;99.90;;;;;;12446202;28;20049;-37
2023/05/16 17:31:04;;;;;;;9.23;2.63;;;12.70;99.90;;;;;;12439701;28;20045;-39
2023/05/16 17:37:09;;;;;;;9.70;2.22;;;12.40;99.90;;;;;;12433776;28;20060;-38
2023/05/16 17:43:14;;;;;;;6.15;2.08;;;12.40;99.90;;;;;;12447093;28;20057;-38
2023/05/16 17:49:17;;;;;;;9.10;2.33;;;12.10;99.90;;;;;;12455912;28;20482;-39
2023/05/16 17:55:21;;;;;;;8.00;2.83;;;12.10;99.90;;;;;;12432041;28;20094;-38
2023/05/16 18:01:24;;;;;;;6.05;2.33;;;11.80;99.90;;;;;;12434216;28;20053;-38
2023/05/16 18:07:32;;;;;;;8.13;2.38;;;11.90;99.90;;;;;;12458901;28;20144;-37
2023/05/16 18:13:52;;;;;;;9.57;2.33;;;11.80;99.90;;;;;;12460643;28;20057;-37
2023/05/16 18:19:58;;;;;;;6.45;2.40;;;11.80;99.90;;;;;;12503782;28;20045;-38
2023/05/16 18:26:02;;;;;;;6.03;2.13;;;11.80;99.90;;;;;;12478271;28;20080;-38
2023/05/16 18:32:06;;;;;;;7.32;2.53;;;11.70;99.90;;;;;;12498116;28;20041;-38
2023/05/16 18:38:10;;;;;;;5.50;2.45;;;11.60;99.90;;;;;;12482633;28;20377;-38
2023/05/16 18:44:30;;;;;;;4.43;2.10;;;11.60;99.90;;;;;;12498543;28;20087;-37
2023/05/16 18:50:33;;;;;;;7.22;2.75;;;11.40;99.90;;;;;;12504571;28;20080;-37
2023/05/16 18:56:36;;;;;;;9.00;2.38;;;11.20;99.90;;;;;;12499100;28;20394;-37
2023/05/16 19:02:40;;;;;;;7.30;2.47;;;11.50;99.90;;;;;;12496915;28;20064;-37
2023/05/16 19:08:43;;;;;;;;;;;11.30;99.90;;;;;;12498549;28;20513;-37
2023/05/16 19:14:50;;;;;;;6.20;2.53;;;11.30;99.90;;;;;;12503917;28;19932;-37
2023/05/16 19:20:53;;;;;;;7.03;2.33;;;11.20;99.90;;;;;;12504744;28;20053;-37
2023/05/16 19:26:56;;;;;;;5.70;2.10;;;11.20;99.90;;;;;;12520926;28;20057;-37
2023/05/16 19:32:59;;;;;;;4.67;2.10;;;11.40;99.90;;;;;;12478391;28;20452;-37
2023/05/16 19:39:01;;;;;;;7.38;2.20;;;11.30;99.90;;;;;;12499635;28;20405;-38
2023/05/16 19:45:05;;;;;;;6.78;2.30;;;11.40;99.90;;;;;;12494007;28;20052;-37
2023/05/16 19:51:08;;;;;;;4.65;2.42;;;11.10;99.90;;;;;;12504873;28;20068;-37
2023/05/16 19:57:11;;;;;;;5.47;2.33;;;10.80;99.90;;;;;;12504102;28;20048;-38
2023/05/16 20:03:14;;;;;;;4.72;2.10;;;10.60;99.90;;;;;;12492685;28;20199;-39
2023/05/16 20:09:17;;;;;;;5.47;2.05;;;10.60;99.90;;;;;;12490938;28;20143;-38
2023/05/16 20:15:20;;;;;;;7.28;2.13;;;10.80;99.90;;;;;;12480578;28;20060;-37
2023/05/16 20:21:22;;;;;;;4.32;1.88;;;10.60;99.90;;;;;;12494292;28;20044;-37
2023/05/16 20:27:28;;;;;;;7.72;2.03;;;10.60;99.90;;;;;;12515808;28;20045;-38
2023/05/16 20:33:34;;;;;;;7.53;1.77;;;10.50;99.90;;;;;;12494223;28;20049;-37
2023/05/16 20:39:38;;;;;;;6.55;1.92;;;10.30;99.90;;;;;;12503440;28;20602;-38
2023/05/16 20:45:41;;;;;;;8.17;1.80;;;10.20;99.90;;;;;;12495269;28;20045;-37
2023/05/16 20:51:44;;;;;;;6.40;1.50;;;10.10;99.90;;;;;;12487759;28;20042;-37
2023/05/16 20:57:47;;;;;;;6.90;1.52;;;10.00;99.90;;;;;;12486894;28;20053;-37
2023/05/16 21:03:50;;;;;;;5.57;1.47;;;10.00;99.90;;;;;;12487850;28;20516;-37
2023/05/16 21:09:54;;;;;;;2.88;1.02;;;9.90;99.90;;;;;;12487888;28;20060;-37
2023/05/16 21:15:56;;;;;;;7.25;1.30;;;9.70;99.90;;;;;;12478465;28;20045;-37
2023/05/16 21:22:02;;;;;;;7.07;1.65;;;9.70;99.90;;;;;;12502894;28;20073;-37
2023/05/16 21:28:05;;;;;;;4.00;1.15;;;9.60;99.90;;;;;;12507004;28;20183;-37
2023/05/16 21:34:08;;;;;;;8.07;1.90;;;9.50;99.90;;;;;;12482428;28;20125;-37
2023/05/16 21:40:17;;;;;;;5.50;1.30;;;9.40;99.90;;;;;;12502353;28;20053;-37
2023/05/16 21:46:21;;;;;;;9.50;1.75;;;9.20;99.90;;;;;;12473519;28;20053;-37
2023/05/16 21:52:24;;;;;;;6.85;1.70;;;9.30;99.90;;;;;;12502384;28;20045;-37
2023/05/16 21:58:27;;;;;;;6.33;1.77;;;9.10;99.90;;;;;;12497806;28;20077;-37
2023/05/16 22:04:29;;;;;;;5.55;2.17;;;9.00;99.90;;;;;;12482793;28;20049;-37
2023/05/16 22:10:33;;;;;;;8.40;1.80;;;9.00;99.90;;;;;;12479345;28;20096;-37
2023/05/16 22:16:35;;;;;;;6.32;1.58;;;9.00;99.90;;;;;;12493449;28;20052;-37
2023/05/16 22:22:39;;;;;;;7.77;2.00;;;8.90;99.90;;;;;;12494757;28;20133;-37
2023/05/16 22:28:43;;;;;;;7.07;1.70;;;8.90;99.90;;;;;;12494816;28;20053;-38
2023/05/16 22:34:46;;;;;;;4.72;1.63;;;9.00;99.90;;;;;;12488313;28;20355;-37
2023/05/16 22:40:49;;;;;;;9.60;2.07;;;8.90;99.90;;;;;;12502969;28;20053;-37
2023/05/16 22:46:52;;;;;;;8.02;1.83;;;8.80;99.90;;;;;;12493488;28;20545;-38
2023/05/16 22:52:55;;;;;;;7.37;1.77;;;8.80;99.90;;;;;;12508194;28;20111;-37
2023/05/16 22:58:57;;;;;;;5.75;1.40;;;8.90;99.90;;;;;;12472733;28;20050;-38
2023/05/16 23:05:01;;;;;;;5.05;1.70;;;8.90;99.90;;;;;;12450189;28;20050;-38
2023/05/16 23:11:03;;;;;;;4.47;1.50;;;8.80;99.90;;;;;;12441240;28;20050;-38
2023/05/16 23:17:06;;;;;;;5.30;1.90;;;8.70;99.90;;;;;;12437639;28;20049;-38
2023/05/16 23:23:10;;;;;;;5.70;1.80;;;8.80;99.90;;;;;;12445984;28;20046;-38
2023/05/16 23:29:13;;;;;;;6.30;1.90;;;8.70;99.90;;;;;;12444611;28;20046;-38
2023/05/16 23:35:16;;;;;;;6.75;1.88;;;8.60;99.90;;;;;;12436021;28;20300;-39
2023/05/16 23:41:19;;;;;;;4.70;2.07;;;8.60;99.90;;;;;;12444313;28;20192;-38
2023/05/16 23:47:22;;;;;;;8.55;2.33;;;8.50;99.90;;;;;;12448064;28;20093;-38
2023/05/16 23:53:29;;;;;;;7.18;2.17;;;8.40;99.90;;;;;;12427047;28;20038;-35
2023/05/16 23:59:33;;;;;;;8.82;2.97;;;8.50;99.90;;;;;;12416214;28;20065;-35
